NZWN/WLG METAR and TAF weather

Enter ICAO airport designator
Station Type Date Time Source
NZWN METAR 2019/10/21 03:00 UTC NOAA

NZWN 210300Z AUTO 33018G28KT 9999 NCD 16/07 Q1000 NOSIG


Station Type Date Time Source
NZWN Decoded METAR 2019/10/21 03:00 UTC NOAA

Wellington Airport, New Zealand (NZWN) 41-20S 174-48E 8M
Oct 20, 2019 - 11:00 PM EDT / 2019.10.21 0300 UTC
Wind: from the NNW (330 degrees) at 21 MPH (18 KT) gusting to 32 MPH (28 KT):0
Visibility: greater than 7 mile(s):0
Temperature: 60 F (16 C)
Dew Point: 44 F (7 C)
Relative Humidity: 55%
Pressure (altimeter): 29.53 in. Hg (1000 hPa)
ob: NZWN 210300Z AUTO 33018G28KT 9999 NCD 16/07 Q1000 NOSIG
cycle: 3

Station Type Date Time Source
NZWN TAF 2019/10/20 18:03 UTC NOAA

TAF NZWN 201701Z 2018/2118 34015G25KT 9999 BKN020
BECMG 2020/2022 24020G35KT
TEMPO 2020/2100 7000 SHRA BKN014
FM210800 33010KT 9999 SCT040

Example: see airport list